Terminal Aerodrome Forecast
Issued by NWS

Home | Current Version | Previous Version | Text Only | Print | Product List | Glossary On
Versions: 1 2 3 4 5 6 7 8 9 10 11 12 13 14 15 16 17 18 19 20 21 22 23 24 25 26
000
FTUS44 KLIX 222330 AAA
TAFHUM
TAF AMD
KHUM 222330Z 2300/2324 18014G20KT P6SM VCSH BKN021
     FM230700 17012KT P6SM BKN035
     FM231500 18015KT P6SM BKN030
     FM231700 18015KT P6SM VCTS BKN040CB=

USA.gov is the U.S. government's official web portal to all federal, state and local government web resources and services.